Time;durP1;ratioP1;P1;durP2;ratioP2;P2;SDS_P1;SDS_P2;PMS_P1;PMS_P2;Temp;Humidity;BMP_temperature;BMP_pressure;BME280_temperature;BME280_humidity;BME280_pressure;Samples;Min_cycle;Max_cycle;Signal;HPM_P1;HPM_P2
2022/12/02 00:02:15;;;;;;;62.50;31.30;;;;;;;;;;4982340;28;20376;-65
2022/12/02 00:04:40;;;;;;;67.90;32.07;;;;;;;;;;5000914;28;20746;-65
2022/12/02 00:07:07;;;;;;;69.20;32.50;;;;;;;;;;5002484;28;20248;-65
2022/12/02 00:09:33;;;;;;;67.63;33.20;;;;;;;;;;5001017;28;20718;-66
2022/12/02 00:11:58;;;;;;;71.83;32.90;;;;;;;;;;4984599;28;20221;-66
2022/12/02 00:14:25;;;;;;;68.20;32.27;;;;;;;;;;4975387;28;20209;-66
2022/12/02 00:16:51;;;;;;;69.00;32.03;;;;;;;;;;4982518;28;21137;-66
2022/12/02 00:19:16;;;;;;;69.03;33.67;;;;;;;;;;4998452;28;20227;-65
2022/12/02 00:21:41;;;;;;;62.47;31.13;;;;;;;;;;5002194;28;20700;-66
2022/12/02 00:24:07;;;;;;;67.27;33.13;;;;;;;;;;5000755;28;20220;-65
2022/12/02 00:26:32;;;;;;;68.40;32.43;;;;;;;;;;5002929;28;20220;-65
2022/12/02 00:28:57;;;;;;;68.63;34.03;;;;;;;;;;5001770;28;20225;-65
2022/12/02 00:31:23;;;;;;;71.30;33.80;;;;;;;;;;5001565;28;21012;-65
2022/12/02 00:33:48;;;;;;;64.70;31.30;;;;;;;;;;5000756;28;20591;-66
2022/12/02 00:36:13;;;;;;;69.40;33.03;;;;;;;;;;4994918;28;20855;-65
2022/12/02 00:38:39;;;;;;;70.10;34.30;;;;;;;;;;4994316;28;20275;-66
2022/12/02 00:41:04;;;;;;;66.87;34.07;;;;;;;;;;4995634;28;20213;-66
2022/12/02 00:46:31;;;;;;;70.30;33.17;;;;;;;;;;5000594;28;20279;-65
2022/12/02 00:48:57;;;;;;;69.67;34.13;;;;;;;;;;4992111;28;20314;-65
2022/12/02 00:51:22;;;;;;;69.87;35.57;;;;;;;;;;4991668;28;20250;-65
2022/12/02 00:53:47;;;;;;;69.50;32.90;;;;;;;;;;4993036;28;20247;-65
2022/12/02 00:56:13;;;;;;;69.67;33.77;;;;;;;;;;4992514;28;20223;-65
2022/12/02 00:58:38;;;;;;;65.87;31.43;;;;;;;;;;4993320;28;20235;-65
2022/12/02 01:01:03;;;;;;;66.77;33.67;;;;;;;;;;4988031;28;20237;-65
2022/12/02 01:03:29;;;;;;;70.80;33.93;;;;;;;;;;5012190;28;20223;-65
2022/12/02 01:05:54;;;;;;;70.23;33.73;;;;;;;;;;5011788;28;20216;-65
2022/12/02 01:08:24;;;;;;;71.17;34.13;;;;;;;;;;5012152;28;20590;-65
2022/12/02 01:10:49;;;;;;;73.47;32.93;;;;;;;;;;5012216;28;20215;-65
2022/12/02 01:13:14;;;;;;;69.63;35.37;;;;;;;;;;5011398;28;20224;-65
2022/12/02 01:15:39;;;;;;;72.57;32.90;;;;;;;;;;5012590;28;20763;-65
2022/12/02 01:18:05;;;;;;;74.73;34.93;;;;;;;;;;5011953;28;20208;-65
2022/12/02 01:20:30;;;;;;;66.03;32.20;;;;;;;;;;5010085;28;20563;-66
2022/12/02 01:22:55;;;;;;;68.27;31.83;;;;;;;;;;5012337;28;20221;-66
2022/12/02 01:25:20;;;;;;;70.73;31.57;;;;;;;;;;5011971;28;20570;-65
2022/12/02 01:27:46;;;;;;;65.20;30.73;;;;;;;;;;5011636;28;20554;-65
2022/12/02 01:30:11;;;;;;;67.33;31.27;;;;;;;;;;5011780;28;20216;-65
2022/12/02 01:32:36;;;;;;;63.23;30.07;;;;;;;;;;5012163;28;20221;-65
2022/12/02 01:35:02;;;;;;;70.07;32.23;;;;;;;;;;5010764;28;20678;-65
2022/12/02 01:37:27;;;;;;;64.10;30.00;;;;;;;;;;5012353;28;20295;-65
2022/12/02 01:39:52;;;;;;;72.97;32.67;;;;;;;;;;5013043;28;20216;-65
2022/12/02 01:42:18;;;;;;;64.03;29.53;;;;;;;;;;5014743;28;20636;-65
2022/12/02 01:44:43;;;;;;;67.33;31.03;;;;;;;;;;5015836;28;20213;-65
2022/12/02 01:47:08;;;;;;;64.00;29.67;;;;;;;;;;5000346;28;20672;-65
2022/12/02 01:49:33;;;;;;;73.83;32.23;;;;;;;;;;5002320;28;20231;-66
2022/12/02 01:51:59;;;;;;;68.33;30.90;;;;;;;;;;4995786;28;20219;-65
2022/12/02 01:54:24;;;;;;;71.53;30.13;;;;;;;;;;4993374;28;20994;-66
2022/12/02 01:56:49;;;;;;;65.10;29.97;;;;;;;;;;4996144;28;20213;-65
2022/12/02 01:59:15;;;;;;;67.20;29.53;;;;;;;;;;4999960;28;20232;-65
2022/12/02 02:01:40;;;;;;;65.63;28.77;;;;;;;;;;5014413;28;20232;-65
2022/12/02 02:04:05;;;;;;;58.20;27.47;;;;;;;;;;5015077;28;20757;-65
2022/12/02 02:06:32;;;;;;;59.90;27.27;;;;;;;;;;5005772;28;20223;-65
2022/12/02 02:08:57;;;;;;;57.07;24.27;;;;;;;;;;5005050;28;20229;-65
2022/12/02 02:11:23;;;;;;;57.63;25.07;;;;;;;;;;5014874;28;20270;-65
2022/12/02 02:13:48;;;;;;;52.00;23.80;;;;;;;;;;5015267;28;20630;-65
2022/12/02 02:16:13;;;;;;;54.17;24.93;;;;;;;;;;4984536;28;20220;-65
2022/12/02 02:18:39;;;;;;;56.37;23.50;;;;;;;;;;4981109;28;20221;-65
2022/12/02 02:21:04;;;;;;;51.07;23.03;;;;;;;;;;4975305;28;20206;-65
2022/12/02 02:23:29;;;;;;;52.23;22.70;;;;;;;;;;4974258;28;20248;-65
2022/12/02 02:25:55;;;;;;;51.57;23.00;;;;;;;;;;4974836;28;20216;-66
2022/12/02 02:28:23;;;;;;;52.33;22.60;;;;;;;;;;4974540;28;20292;-65
2022/12/02 02:30:48;;;;;;;52.00;23.17;;;;;;;;;;4973981;28;20237;-65
2022/12/02 02:33:13;;;;;;;47.17;21.70;;;;;;;;;;4974299;28;20296;-65
2022/12/02 02:35:39;;;;;;;49.30;21.90;;;;;;;;;;4975548;28;20222;-65
2022/12/02 02:38:05;;;;;;;49.73;22.13;;;;;;;;;;4974645;28;20581;-65
2022/12/02 02:40:30;;;;;;;54.50;22.67;;;;;;;;;;4975769;28;20213;-65
2022/12/02 02:42:57;;;;;;;50.70;22.30;;;;;;;;;;4975856;28;20221;-65
2022/12/02 02:45:24;;;;;;;49.33;22.80;;;;;;;;;;4973232;28;20300;-65
2022/12/02 02:47:50;;;;;;;47.90;20.97;;;;;;;;;;4974453;28;20209;-66
2022/12/02 02:50:15;;;;;;;52.93;22.07;;;;;;;;;;4975012;28;20301;-65
2022/12/02 02:52:40;;;;;;;52.10;22.23;;;;;;;;;;4972448;28;20225;-65
2022/12/02 02:55:06;;;;;;;54.20;22.83;;;;;;;;;;4973838;28;20221;-65
2022/12/02 02:57:31;;;;;;;50.40;22.47;;;;;;;;;;4979140;28;20316;-65
2022/12/02 02:59:56;;;;;;;54.53;22.60;;;;;;;;;;4979048;28;20221;-65
2022/12/02 03:02:22;;;;;;;45.97;21.33;;;;;;;;;;4974600;28;20337;-65
2022/12/02 03:04:47;;;;;;;47.00;20.93;;;;;;;;;;4974583;28;20221;-65
2022/12/02 03:07:12;;;;;;;48.23;21.50;;;;;;;;;;4973207;28;20224;-65
2022/12/02 03:09:37;;;;;;;52.43;22.27;;;;;;;;;;4975030;28;20693;-65
2022/12/02 03:12:03;;;;;;;47.47;21.83;;;;;;;;;;4972178;28;20212;-65
2022/12/02 03:14:28;;;;;;;47.80;21.83;;;;;;;;;;4965604;28;20685;-66
2022/12/02 03:16:53;;;;;;;47.33;21.67;;;;;;;;;;4965133;28;20580;-66
2022/12/02 03:19:18;;;;;;;48.03;21.13;;;;;;;;;;4964408;28;20226;-65
2022/12/02 03:21:44;;;;;;;48.80;21.03;;;;;;;;;;4969640;28;20221;-66
2022/12/02 03:24:09;;;;;;;48.60;20.70;;;;;;;;;;4977946;28;20217;-65
2022/12/02 03:26:35;;;;;;;51.43;21.60;;;;;;;;;;4968152;28;20226;-66
2022/12/02 03:29:00;;;;;;;46.53;20.33;;;;;;;;;;4957026;28;20525;-66
2022/12/02 03:31:25;;;;;;;45.73;20.70;;;;;;;;;;4977907;28;20213;-66
2022/12/02 03:33:51;;;;;;;46.77;21.87;;;;;;;;;;4983390;28;20217;-66
2022/12/02 03:36:16;;;;;;;48.13;22.23;;;;;;;;;;4983608;28;20726;-65
2022/12/02 03:38:41;;;;;;;49.77;22.37;;;;;;;;;;4982388;28;20575;-65
2022/12/02 03:41:06;;;;;;;54.13;23.43;;;;;;;;;;4981644;28;20213;-65
2022/12/02 03:43:32;;;;;;;52.93;22.93;;;;;;;;;;4983585;28;20225;-65
2022/12/02 03:45:57;;;;;;;46.63;21.37;;;;;;;;;;4979881;28;20209;-66
2022/12/02 03:48:23;;;;;;;53.47;23.57;;;;;;;;;;4969416;28;20682;-65
2022/12/02 03:50:49;;;;;;;56.80;23.63;;;;;;;;;;4957063;28;20218;-66
2022/12/02 03:53:14;;;;;;;54.43;23.93;;;;;;;;;;4957949;28;20225;-66
2022/12/02 03:55:39;;;;;;;56.40;23.73;;;;;;;;;;4964089;28;20673;-66
2022/12/02 03:58:05;;;;;;;52.60;22.23;;;;;;;;;;4983600;28;20213;-65
2022/12/02 04:00:30;;;;;;;50.57;22.10;;;;;;;;;;4984077;28;20209;-65
2022/12/02 04:02:56;;;;;;;53.83;22.10;;;;;;;;;;4982768;28;20225;-66
2022/12/02 04:05:21;;;;;;;51.53;21.57;;;;;;;;;;4983374;28;20213;-65
2022/12/02 04:07:46;;;;;;;51.83;21.87;;;;;;;;;;4982961;28;20221;-65
2022/12/02 04:10:11;;;;;;;50.73;21.77;;;;;;;;;;4976222;28;20976;-65
2022/12/02 04:12:36;;;;;;;48.80;20.90;;;;;;;;;;4976019;28;20209;-66
2022/12/02 04:15:02;;;;;;;46.90;20.93;;;;;;;;;;4975167;28;20225;-65
2022/12/02 04:17:27;;;;;;;50.20;22.43;;;;;;;;;;4983111;28;20221;-65
2022/12/02 04:19:52;;;;;;;42.47;19.50;;;;;;;;;;4983899;28;20225;-66
2022/12/02 04:22:18;;;;;;;41.80;19.17;;;;;;;;;;4982712;28;20223;-66
2022/12/02 04:24:43;;;;;;;43.70;19.03;;;;;;;;;;4983299;28;20213;-66
2022/12/02 04:27:08;;;;;;;47.60;19.70;;;;;;;;;;4983170;28;20217;-65
2022/12/02 04:29:33;;;;;;;40.73;18.27;;;;;;;;;;4982887;28;20248;-66
2022/12/02 04:31:59;;;;;;;43.40;18.83;;;;;;;;;;4978353;28;20217;-66
2022/12/02 04:34:24;;;;;;;42.30;18.13;;;;;;;;;;4993768;28;20219;-66
2022/12/02 04:36:49;;;;;;;37.70;17.50;;;;;;;;;;4994127;28;20216;-65
2022/12/02 04:39:14;;;;;;;42.97;17.73;;;;;;;;;;4998282;28;20216;-65
2022/12/02 04:41:40;;;;;;;38.60;19.17;;;;;;;;;;5003048;28;20228;-65
2022/12/02 04:44:05;;;;;;;42.83;18.30;;;;;;;;;;5001550;28;20638;-65
2022/12/02 04:46:30;;;;;;;39.43;17.80;;;;;;;;;;5002696;28;20220;-66
2022/12/02 04:48:55;;;;;;;38.33;17.57;;;;;;;;;;5002417;28;20228;-66
2022/12/02 04:51:21;;;;;;;42.07;18.70;;;;;;;;;;5001543;28;20244;-65
2022/12/02 04:53:46;;;;;;;38.50;18.67;;;;;;;;;;5000615;28;20216;-66
2022/12/02 04:56:11;;;;;;;37.23;17.07;;;;;;;;;;4993008;28;20228;-65
2022/12/02 04:58:37;;;;;;;38.20;17.57;;;;;;;;;;4974689;28;20220;-66
2022/12/02 05:01:03;;;;;;;36.30;16.70;;;;;;;;;;4976305;28;20307;-66
2022/12/02 05:03:28;;;;;;;35.40;17.40;;;;;;;;;;5002167;28;20251;-66
2022/12/02 05:05:53;;;;;;;37.27;17.17;;;;;;;;;;5001430;28;20252;-66
2022/12/02 05:08:18;;;;;;;36.10;16.57;;;;;;;;;;5001888;28;20231;-65
2022/12/02 05:10:44;;;;;;;33.50;15.93;;;;;;;;;;5001952;28;20714;-66
2022/12/02 05:13:09;;;;;;;36.20;16.73;;;;;;;;;;5001366;28;20212;-65
2022/12/02 05:15:34;;;;;;;35.63;16.63;;;;;;;;;;4997682;28;20213;-65
2022/12/02 05:18:00;;;;;;;34.57;16.63;;;;;;;;;;4980499;28;20221;-66
2022/12/02 05:20:25;;;;;;;34.47;16.37;;;;;;;;;;4977582;28;21016;-66
2022/12/02 05:22:50;;;;;;;36.70;17.73;;;;;;;;;;4979184;28;20475;-66
2022/12/02 05:25:15;;;;;;;36.90;17.17;;;;;;;;;;4984419;28;20220;-66
2022/12/02 05:27:41;;;;;;;38.77;18.43;;;;;;;;;;4986530;28;20221;-66
2022/12/02 05:30:06;;;;;;;38.47;18.10;;;;;;;;;;4986310;28;20236;-65
2022/12/02 05:32:32;;;;;;;35.30;17.97;;;;;;;;;;4985637;28;20213;-66
2022/12/02 05:34:57;;;;;;;37.40;18.03;;;;;;;;;;5004127;28;20300;-65
2022/12/02 05:37:22;;;;;;;40.17;19.20;;;;;;;;;;5005098;28;20274;-66
2022/12/02 05:39:48;;;;;;;38.83;18.63;;;;;;;;;;5000538;28;20605;-66
2022/12/02 05:42:13;;;;;;;39.50;18.67;;;;;;;;;;4989145;28;20225;-65
2022/12/02 05:44:38;;;;;;;42.97;19.33;;;;;;;;;;4978393;28;20217;-66
2022/12/02 05:47:05;;;;;;;42.50;19.10;;;;;;;;;;4981400;28;20845;-66
2022/12/02 05:49:31;;;;;;;41.13;18.93;;;;;;;;;;5005331;28;20644;-66
2022/12/02 05:51:57;;;;;;;39.20;18.67;;;;;;;;;;5004267;28;20267;-66
2022/12/02 05:54:22;;;;;;;40.53;19.67;;;;;;;;;;5004325;28;20220;-66
2022/12/02 05:56:48;;;;;;;43.37;19.37;;;;;;;;;;4998869;28;20217;-66
2022/12/02 05:59:15;;;;;;;40.93;19.57;;;;;;;;;;4985464;28;20209;-65
2022/12/02 06:01:40;;;;;;;43.53;19.93;;;;;;;;;;5001976;28;20784;-66
2022/12/02 06:04:10;;;;;;;42.17;18.47;;;;;;;;;;4997333;28;20220;-65
2022/12/02 06:06:35;;;;;;;45.07;19.53;;;;;;;;;;4997151;28;20220;-65
2022/12/02 06:09:00;;;;;;;42.47;18.83;;;;;;;;;;4998725;28;20286;-64
2022/12/02 06:11:27;;;;;;;43.80;20.20;;;;;;;;;;5004874;28;20218;-65
2022/12/02 06:13:54;;;;;;;37.90;18.60;;;;;;;;;;5004856;28;20651;-66
2022/12/02 06:16:21;;;;;;;38.03;18.87;;;;;;;;;;4991491;28;20553;-65
2022/12/02 06:18:46;;;;;;;37.90;19.20;;;;;;;;;;5004731;28;20343;-66
2022/12/02 06:21:12;;;;;;;42.27;19.73;;;;;;;;;;4993512;28;20763;-66
2022/12/02 06:23:39;;;;;;;41.77;19.63;;;;;;;;;;5003727;28;20226;-66
2022/12/02 06:26:05;;;;;;;40.03;20.17;;;;;;;;;;4994581;28;20221;-65
2022/12/02 06:28:31;;;;;;;40.37;20.07;;;;;;;;;;4995929;28;20323;-65
2022/12/02 06:30:58;;;;;;;43.03;19.57;;;;;;;;;;4996132;28;20313;-66
2022/12/02 06:33:25;;;;;;;45.33;19.37;;;;;;;;;;5003697;28;20217;-66
2022/12/02 06:35:50;;;;;;;38.03;18.70;;;;;;;;;;5004250;28;20267;-65
2022/12/02 06:38:17;;;;;;;40.03;19.70;;;;;;;;;;5004212;28;20212;-65
2022/12/02 06:40:43;;;;;;;39.10;18.37;;;;;;;;;;5003230;28;20252;-66
2022/12/02 06:43:12;;;;;;;43.77;20.87;;;;;;;;;;5003140;28;20790;-66
2022/12/02 06:45:37;;;;;;;47.23;21.10;;;;;;;;;;5003508;28;20216;-66
2022/12/02 06:48:03;;;;;;;44.63;21.60;;;;;;;;;;5007469;28;20710;-65
2022/12/02 06:50:30;;;;;;;40.90;20.20;;;;;;;;;;4997511;28;20211;-66
2022/12/02 06:53:00;;;;;;;46.33;21.60;;;;;;;;;;4995011;28;20221;-63
2022/12/02 06:55:29;;;;;;;45.60;23.20;;;;;;;;;;4994209;28;20420;-64
2022/12/02 06:57:55;;;;;;;44.33;20.73;;;;;;;;;;4977152;28;20288;-63
2022/12/02 07:00:20;;;;;;;49.60;23.23;;;;;;;;;;4983163;28;20428;-66
2022/12/02 07:02:45;;;;;;;40.50;19.87;;;;;;;;;;4981354;28;20697;-66
2022/12/02 07:05:15;;;;;;;45.77;20.70;;;;;;;;;;4996844;28;20695;-66
2022/12/02 07:07:40;;;;;;;42.90;20.10;;;;;;;;;;4999008;28;20752;-66
2022/12/02 07:10:07;;;;;;;42.43;19.40;;;;;;;;;;4993485;28;20301;-66
2022/12/02 07:12:36;;;;;;;47.43;19.90;;;;;;;;;;4993094;28;20609;-66
2022/12/02 07:15:11;;;;;;;49.10;20.30;;;;;;;;;;4991212;28;20213;-63
2022/12/02 07:17:37;;;;;;;44.73;21.23;;;;;;;;;;4992212;28;20205;-64
2022/12/02 07:20:05;;;;;;;47.47;20.60;;;;;;;;;;4993421;28;20232;-64
2022/12/02 07:22:31;;;;;;;43.97;20.00;;;;;;;;;;4993804;28;20296;-65
2022/12/02 07:25:00;;;;;;;45.70;20.13;;;;;;;;;;4992969;28;20209;-65
2022/12/02 07:27:30;;;;;;;43.03;20.37;;;;;;;;;;4993243;28;20593;-65
2022/12/02 07:29:55;;;;;;;45.70;19.10;;;;;;;;;;4993557;28;20244;-66
2022/12/02 07:32:21;;;;;;;48.77;20.57;;;;;;;;;;4992390;28;20209;-66
2022/12/02 07:34:46;;;;;;;43.30;19.37;;;;;;;;;;4993780;28;20640;-65
2022/12/02 07:37:12;;;;;;;43.87;18.77;;;;;;;;;;4992402;28;20708;-65
2022/12/02 07:39:37;;;;;;;46.93;19.00;;;;;;;;;;4992568;28;20205;-65
2022/12/02 07:42:02;;;;;;;43.17;18.93;;;;;;;;;;4992897;28;20712;-65
2022/12/02 07:44:27;;;;;;;49.80;20.10;;;;;;;;;;4992537;28;20213;-65
2022/12/02 07:46:52;;;;;;;45.13;19.13;;;;;;;;;;4992397;28;20224;-68
2022/12/02 07:49:18;;;;;;;45.40;20.03;;;;;;;;;;4993084;28;20228;-65
2022/12/02 07:51:43;;;;;;;43.07;19.67;;;;;;;;;;4993351;28;20214;-65
2022/12/02 07:54:08;;;;;;;48.63;20.20;;;;;;;;;;5012286;28;20221;-65
2022/12/02 07:56:34;;;;;;;54.33;20.20;;;;;;;;;;4993352;28;20297;-65
2022/12/02 07:59:01;;;;;;;50.80;20.23;;;;;;;;;;4992508;28;20264;-64
2022/12/02 08:01:26;;;;;;;49.83;21.53;;;;;;;;;;4999944;28;20224;-64
2022/12/02 08:03:51;;;;;;;49.63;20.97;;;;;;;;;;4993675;28;20701;-64
2022/12/02 08:06:17;;;;;;;59.07;21.53;;;;;;;;;;4993314;28;20216;-64
2022/12/02 08:08:42;;;;;;;49.67;20.67;;;;;;;;;;4992759;28;20225;-64
2022/12/02 08:11:07;;;;;;;54.13;20.27;;;;;;;;;;4992778;28;20217;-64
2022/12/02 08:13:32;;;;;;;48.97;21.03;;;;;;;;;;4993385;28;20232;-64
2022/12/02 08:15:58;;;;;;;50.10;20.40;;;;;;;;;;4982795;28;20248;-64
2022/12/02 08:18:23;;;;;;;51.97;20.67;;;;;;;;;;4973725;28;20221;-64
2022/12/02 08:20:48;;;;;;;56.07;22.07;;;;;;;;;;4973935;28;20214;-65
2022/12/02 08:23:13;;;;;;;56.20;21.73;;;;;;;;;;4972853;28;20353;-64
2022/12/02 08:25:39;;;;;;;53.87;21.67;;;;;;;;;;4973681;28;20220;-64
2022/12/02 08:28:04;;;;;;;53.13;21.70;;;;;;;;;;4972543;28;20276;-64
2022/12/02 08:30:29;;;;;;;49.30;20.77;;;;;;;;;;4973746;28;20684;-64
2022/12/02 08:32:54;;;;;;;55.03;21.63;;;;;;;;;;4973930;28;20221;-64
2022/12/02 08:35:20;;;;;;;54.87;21.43;;;;;;;;;;4972775;28;20650;-64
2022/12/02 08:37:45;;;;;;;53.20;21.70;;;;;;;;;;4973784;28;20217;-64
2022/12/02 08:40:11;;;;;;;55.37;21.77;;;;;;;;;;4973046;28;20241;-64
2022/12/02 08:42:37;;;;;;;57.47;22.90;;;;;;;;;;4972917;28;20284;-64
2022/12/02 08:45:02;;;;;;;54.63;21.93;;;;;;;;;;4973060;28;20711;-64
2022/12/02 08:47:27;;;;;;;59.17;22.60;;;;;;;;;;4973830;28;20206;-64
2022/12/02 08:49:52;;;;;;;55.07;21.87;;;;;;;;;;4974003;28;20224;-65
2022/12/02 08:52:18;;;;;;;57.13;21.90;;;;;;;;;;4976702;28;20210;-64
2022/12/02 08:54:44;;;;;;;57.97;21.60;;;;;;;;;;4977019;28;20585;-65
2022/12/02 08:57:09;;;;;;;63.07;22.30;;;;;;;;;;4995328;28;20235;-64
2022/12/02 08:59:35;;;;;;;60.73;22.00;;;;;;;;;;5009274;28;20747;-64
2022/12/02 09:02:00;;;;;;;55.53;22.27;;;;;;;;;;4996460;28;20240;-62
2022/12/02 09:04:25;;;;;;;59.83;22.90;;;;;;;;;;5000614;28;20679;-64
2022/12/02 09:06:50;;;;;;;54.47;21.67;;;;;;;;;;5016361;28;20220;-64
2022/12/02 09:09:16;;;;;;;55.23;22.13;;;;;;;;;;5015682;28;20671;-64
2022/12/02 09:11:41;;;;;;;53.50;21.20;;;;;;;;;;5015708;28;20224;-64
2022/12/02 09:14:06;;;;;;;57.90;22.33;;;;;;;;;;5015814;28;20220;-64
2022/12/02 09:16:32;;;;;;;53.13;21.13;;;;;;;;;;5001604;28;20213;-64
2022/12/02 09:18:57;;;;;;;55.07;21.93;;;;;;;;;;4995995;28;20699;-65
2022/12/02 09:21:22;;;;;;;50.43;21.70;;;;;;;;;;4996089;28;20266;-64
2022/12/02 09:23:47;;;;;;;53.77;20.40;;;;;;;;;;4996246;28;20224;-64
2022/12/02 09:26:13;;;;;;;51.47;21.00;;;;;;;;;;4995345;28;20676;-64
2022/12/02 09:28:38;;;;;;;51.83;21.33;;;;;;;;;;4996370;28;20229;-64
2022/12/02 09:31:03;;;;;;;49.40;20.97;;;;;;;;;;4995645;28;20209;-63
2022/12/02 09:33:28;;;;;;;50.10;18.67;;;;;;;;;;4995570;28;20283;-64
2022/12/02 09:35:54;;;;;;;49.07;21.17;;;;;;;;;;4996207;28;20221;-64
2022/12/02 09:38:19;;;;;;;54.67;21.57;;;;;;;;;;4995082;28;20308;-64
2022/12/02 09:40:44;;;;;;;49.07;20.07;;;;;;;;;;4995670;28;20213;-64
2022/12/02 09:43:09;;;;;;;48.40;18.73;;;;;;;;;;4995720;28;20223;-64
2022/12/02 09:45:35;;;;;;;48.20;19.77;;;;;;;;;;4995023;28;20236;-64
2022/12/02 09:48:00;;;;;;;49.73;19.90;;;;;;;;;;4995670;28;20217;-63
2022/12/02 09:50:25;;;;;;;58.30;20.83;;;;;;;;;;4995836;28;20621;-64
2022/12/02 09:52:51;;;;;;;53.00;21.03;;;;;;;;;;4995174;28;20252;-64
2022/12/02 09:55:16;;;;;;;52.80;20.50;;;;;;;;;;4995397;28;20213;-64
2022/12/02 09:57:42;;;;;;;48.60;19.67;;;;;;;;;;5000514;28;20698;-64
2022/12/02 10:00:08;;;;;;;53.67;19.83;;;;;;;;;;4983821;28;20731;-64
2022/12/02 10:02:34;;;;;;;45.07;17.73;;;;;;;;;;4981753;28;20455;-64
2022/12/02 10:05:02;;;;;;;44.60;19.40;;;;;;;;;;4985371;28;20221;-64
2022/12/02 10:07:27;;;;;;;47.03;17.80;;;;;;;;;;4977298;28;20210;-64
2022/12/02 10:09:52;;;;;;;45.90;18.30;;;;;;;;;;4970104;28;20234;-64
2022/12/02 10:12:17;;;;;;;44.27;18.37;;;;;;;;;;4969885;28;20237;-64
2022/12/02 10:14:43;;;;;;;47.53;18.60;;;;;;;;;;4969809;28;20248;-64
2022/12/02 10:17:12;;;;;;;48.27;19.07;;;;;;;;;;4970329;28;20214;-64
2022/12/02 10:19:37;;;;;;;47.07;17.60;;;;;;;;;;4987120;28;20225;-64
2022/12/02 10:22:04;;;;;;;44.37;17.80;;;;;;;;;;4979719;28;20556;-64
2022/12/02 10:24:36;;;;;;;42.27;17.57;;;;;;;;;;4979542;28;20402;-64
2022/12/02 10:27:02;;;;;;;42.20;16.90;;;;;;;;;;4982379;28;20217;-64
2022/12/02 10:29:28;;;;;;;47.97;18.67;;;;;;;;;;4987863;28;20240;-64
2022/12/02 10:31:54;;;;;;;48.77;17.87;;;;;;;;;;4982678;28;20210;-64
2022/12/02 10:34:19;;;;;;;50.17;20.10;;;;;;;;;;4969591;28;20221;-64
2022/12/02 10:36:45;;;;;;;49.07;17.73;;;;;;;;;;4969608;28;20279;-64
2022/12/02 10:39:17;;;;;;;55.40;18.47;;;;;;;;;;4969497;28;20599;-64
2022/12/02 10:41:43;;;;;;;51.23;18.23;;;;;;;;;;4985878;28;20213;-64
2022/12/02 10:44:12;;;;;;;51.43;18.37;;;;;;;;;;4963046;28;20530;-64
2022/12/02 10:46:37;;;;;;;48.67;17.10;;;;;;;;;;4980022;28;20242;-64
2022/12/02 10:49:29;;;;;;;48.23;15.97;;;;;;;;;;4980545;28;20233;-64
2022/12/02 10:51:54;;;;;;;45.20;18.57;;;;;;;;;;4987228;28;20752;-64
2022/12/02 10:54:22;;;;;;;45.83;17.00;;;;;;;;;;4987958;28;20228;-64
2022/12/02 10:56:47;;;;;;;47.33;17.60;;;;;;;;;;4983656;28;20212;-64
2022/12/02 10:59:13;;;;;;;43.97;16.30;;;;;;;;;;5000638;28;20236;-64
2022/12/02 11:01:39;;;;;;;45.30;16.30;;;;;;;;;;5001138;28;20244;-64
2022/12/02 11:04:07;;;;;;;42.23;15.83;;;;;;;;;;4993676;28;20224;-64
2022/12/02 11:06:32;;;;;;;50.37;18.97;;;;;;;;;;4994458;28;20264;-64
2022/12/02 11:08:57;;;;;;;46.67;16.97;;;;;;;;;;4993036;28;20735;-64
2022/12/02 11:11:23;;;;;;;46.67;16.83;;;;;;;;;;4993271;28;20612;-64
2022/12/02 11:13:54;;;;;;;45.63;17.40;;;;;;;;;;4993785;28;20213;-64
2022/12/02 11:16:26;;;;;;;42.73;16.27;;;;;;;;;;4994045;28;20577;-64
2022/12/02 11:19:02;;;;;;;49.63;17.60;;;;;;;;;;4993577;28;20217;-64
2022/12/02 11:21:28;;;;;;;45.97;16.93;;;;;;;;;;5005788;28;20232;-65
2022/12/02 11:24:12;;;;;;;49.10;19.03;;;;;;;;;;5013202;28;20233;-65
2022/12/02 11:26:58;;;;;;;57.07;18.30;;;;;;;;;;5000405;28;20225;-64
2022/12/02 11:29:23;;;;;;;53.57;19.03;;;;;;;;;;4993735;28;20228;-64
2022/12/02 11:32:01;;;;;;;51.23;18.70;;;;;;;;;;4993430;28;20231;-64
2022/12/02 11:34:38;;;;;;;49.83;19.17;;;;;;;;;;4993941;28;20283;-64
2022/12/02 11:37:18;;;;;;;55.97;18.23;;;;;;;;;;4993612;28;20565;-64
2022/12/02 11:39:43;;;;;;;49.83;18.33;;;;;;;;;;4993358;28;20245;-64
2022/12/02 11:42:10;;;;;;;51.57;17.93;;;;;;;;;;4993474;28;20244;-64
2022/12/02 11:44:35;;;;;;;53.83;18.20;;;;;;;;;;4994123;28;20743;-64
2022/12/02 11:47:01;;;;;;;54.00;18.53;;;;;;;;;;4992772;28;20304;-63
2022/12/02 11:49:28;;;;;;;49.27;17.67;;;;;;;;;;4992278;28;20220;-64
2022/12/02 11:51:59;;;;;;;53.20;18.67;;;;;;;;;;4993076;28;20213;-64
2022/12/02 11:54:25;;;;;;;48.50;17.23;;;;;;;;;;4993589;28;20213;-64
2022/12/02 11:56:50;;;;;;;43.67;16.23;;;;;;;;;;4993187;28;20304;-64
2022/12/02 11:59:17;;;;;;;42.90;16.77;;;;;;;;;;5003089;28;20671;-64
2022/12/02 12:01:42;;;;;;;43.83;17.03;;;;;;;;;;4992550;28;20233;-64
2022/12/02 12:04:19;;;;;;;41.27;15.37;;;;;;;;;;4993011;28;20221;-64
2022/12/02 12:07:03;;;;;;;42.87;15.73;;;;;;;;;;4993724;28;20270;-65
2022/12/02 12:09:28;;;;;;;43.17;16.13;;;;;;;;;;4999534;28;20228;-64
2022/12/02 12:12:10;;;;;;;43.00;18.13;;;;;;;;;;5013156;28;20219;-64
2022/12/02 12:14:54;;;;;;;44.00;17.00;;;;;;;;;;5005261;28;20211;-64
2022/12/02 12:17:29;;;;;;;56.57;27.73;;;;;;;;;;4974344;28;20296;-64
2022/12/02 12:19:54;;;;;;;41.00;18.93;;;;;;;;;;4973755;28;20213;-64
2022/12/02 12:22:23;;;;;;;36.40;16.27;;;;;;;;;;4972714;28;20233;-64
2022/12/02 12:24:49;;;;;;;45.60;22.33;;;;;;;;;;4974115;28;20222;-64
2022/12/02 12:27:32;;;;;;;41.00;15.30;;;;;;;;;;4987822;28;20228;-64
2022/12/02 12:29:58;;;;;;;45.07;24.67;;;;;;;;;;4973881;28;20229;-64
2022/12/02 12:32:23;;;;;;;47.53;19.30;;;;;;;;;;4973424;28;20209;-64
2022/12/02 12:34:48;;;;;;;37.90;16.70;;;;;;;;;;4972839;28;20551;-64
2022/12/02 12:37:13;;;;;;;34.50;14.93;;;;;;;;;;4973321;28;20214;-64
2022/12/02 12:39:39;;;;;;;44.20;18.23;;;;;;;;;;4973691;28;20736;-64
2022/12/02 12:42:04;;;;;;;39.63;18.90;;;;;;;;;;4972463;28;20220;-64
2022/12/02 12:44:29;;;;;;;31.43;13.50;;;;;;;;;;4973836;28;20212;-64
2022/12/02 12:46:55;;;;;;;32.43;12.87;;;;;;;;;;4973705;28;20221;-64
2022/12/02 12:49:20;;;;;;;34.77;13.23;;;;;;;;;;4972121;28;20232;-64
2022/12/02 12:51:45;;;;;;;30.97;12.90;;;;;;;;;;4973465;28;20246;-64
2022/12/02 12:54:10;;;;;;;36.07;14.40;;;;;;;;;;4973389;28;20206;-64
2022/12/02 12:56:36;;;;;;;30.17;13.50;;;;;;;;;;4982782;28;20216;-64
2022/12/02 12:59:01;;;;;;;31.87;14.63;;;;;;;;;;5008173;28;20212;-63
2022/12/02 13:01:26;;;;;;;33.60;13.77;;;;;;;;;;4993164;28;20229;-65
2022/12/02 13:03:51;;;;;;;33.47;14.57;;;;;;;;;;4991836;28;20389;-64
2022/12/02 13:06:17;;;;;;;33.27;13.67;;;;;;;;;;4992476;28;20213;-64
2022/12/02 13:08:42;;;;;;;31.27;14.23;;;;;;;;;;4992481;28;20320;-64
2022/12/02 13:11:07;;;;;;;36.70;14.40;;;;;;;;;;4991756;28;20241;-64
2022/12/02 13:13:32;;;;;;;36.10;13.93;;;;;;;;;;4992787;28;20719;-64
2022/12/02 13:15:58;;;;;;;33.80;13.43;;;;;;;;;;5002812;28;20212;-64
2022/12/02 13:18:23;;;;;;;35.83;13.40;;;;;;;;;;5011281;28;20220;-64
2022/12/02 13:20:48;;;;;;;37.03;13.57;;;;;;;;;;5009354;28;20320;-65
2022/12/02 13:23:14;;;;;;;37.93;14.30;;;;;;;;;;5002758;28;20251;-65
2022/12/02 13:25:39;;;;;;;32.33;13.70;;;;;;;;;;5000529;28;20209;-64
2022/12/02 13:28:04;;;;;;;35.07;14.03;;;;;;;;;;4998000;28;20220;-66
2022/12/02 13:30:29;;;;;;;41.67;15.13;;;;;;;;;;4993360;28;20316;-66
2022/12/02 13:32:55;;;;;;;34.37;14.47;;;;;;;;;;4992573;28;20217;-65
2022/12/02 13:35:20;;;;;;;33.00;13.80;;;;;;;;;;4992109;28;20228;-65
2022/12/02 13:37:45;;;;;;;43.97;17.23;;;;;;;;;;4995497;28;20248;-65
2022/12/02 13:40:12;;;;;;;48.30;20.70;;;;;;;;;;4995550;28;20216;-65
2022/12/02 13:42:38;;;;;;;40.60;16.97;;;;;;;;;;4994252;28;20217;-65
2022/12/02 13:45:03;;;;;;;40.43;17.00;;;;;;;;;;4995401;28;20217;-65
2022/12/02 13:47:29;;;;;;;36.40;16.70;;;;;;;;;;5015951;28;20662;-65
2022/12/02 13:49:54;;;;;;;40.93;17.13;;;;;;;;;;5015584;28;20229;-66
2022/12/02 13:52:19;;;;;;;38.27;17.67;;;;;;;;;;5005328;28;20213;-64
2022/12/02 13:54:44;;;;;;;42.60;20.03;;;;;;;;;;5009788;28;20628;-66
2022/12/02 13:57:10;;;;;;;46.30;22.47;;;;;;;;;;5005726;28;20228;-65
2022/12/02 13:59:35;;;;;;;54.53;23.83;;;;;;;;;;5005771;28;20627;-65
2022/12/02 14:02:00;;;;;;;50.10;23.80;;;;;;;;;;4995569;28;20328;-66
2022/12/02 14:04:25;;;;;;;51.17;25.53;;;;;;;;;;4984377;28;20213;-66
2022/12/02 14:06:51;;;;;;;52.13;25.93;;;;;;;;;;4975374;28;20206;-67
2022/12/02 14:09:16;;;;;;;54.80;24.40;;;;;;;;;;4992045;28;20762;-65
2022/12/02 14:11:41;;;;;;;55.63;27.23;;;;;;;;;;4995679;28;20224;-65
2022/12/02 14:14:07;;;;;;;59.40;29.87;;;;;;;;;;4994261;28;20216;-65